Terminal Aerodrome Forecast
Issued by NWS

Home | Current Version | Previous Version | Text Only | Print | Product List | Glossary On
Versions: 1 2 3 4 5 6 7 8 9 10 11 12 13 14 15 16 17 18
688
FTAK31 PAJN 302339
TAFAJN
TAF
PAJN 302339Z 3100/3124 VRB05KT P6SM -SHRA FEW005 BKN035 OVC045
     FM310200 10005KT P6SM BKN050 BKN080
     FM311600 13011KT P6SM VCSH SCT050 OVC080=

USA.gov is the U.S. government's official web portal to all federal, state and local government web resources and services.